createdAt,value
2022-10-18T00:00:17.925Z,33.53
2022-10-18T00:02:44.588Z,30.70
2022-10-18T00:05:11.389Z,32.05
2022-10-18T00:07:38.033Z,33.83
2022-10-18T00:10:05.844Z,31.00
2022-10-18T00:12:34.694Z,31.02
2022-10-18T00:15:01.796Z,33.45
2022-10-18T00:17:28.601Z,31.83
2022-10-18T00:19:55.338Z,39.20
2022-10-18T00:22:22.204Z,34.08
2022-10-18T00:24:52.849Z,32.92
2022-10-18T00:27:19.513Z,36.88
2022-10-18T00:29:46.187Z,31.98
2022-10-18T00:32:12.797Z,28.63
2022-10-18T00:34:40.234Z,35.47
2022-10-18T00:37:06.840Z,30.50
2022-10-18T00:39:33.630Z,32.45
2022-10-18T00:42:00.178Z,35.95
2022-10-18T00:44:26.610Z,40.15
2022-10-18T00:46:58.471Z,41.15
2022-10-18T00:49:34.183Z,44.15
2022-10-18T00:52:06.631Z,43.60
2022-10-18T00:54:35.881Z,50.05
2022-10-18T00:57:02.672Z,42.05
2022-10-18T00:59:29.736Z,53.20
2022-10-18T01:01:56.813Z,57.00
2022-10-18T01:04:23.949Z,58.75
2022-10-18T01:07:25.954Z,54.78
2022-10-18T01:09:58.706Z,45.22
2022-10-18T01:12:46.684Z,47.93
2022-10-18T01:15:18.342Z,49.40
2022-10-18T01:17:52.227Z,55.00
2022-10-18T01:20:37.270Z,52.05
2022-10-18T01:23:11.588Z,44.63
2022-10-18T01:26:17.479Z,52.08
2022-10-18T01:29:32.415Z,50.97
2022-10-18T01:32:03.828Z,51.95
2022-10-18T01:34:34.695Z,50.45
2022-10-18T01:37:04.902Z,46.78
2022-10-18T01:39:41.465Z,50.78
2022-10-18T01:42:11.562Z,49.13
2022-10-18T01:44:40.900Z,49.78
2022-10-18T01:47:10.817Z,46.85
2022-10-18T01:49:37.401Z,51.10
2022-10-18T01:52:04.500Z,43.95
2022-10-18T01:54:36.609Z,47.35
2022-10-18T01:57:22.309Z,41.05
2022-10-18T02:00:05.569Z,45.13
2022-10-18T02:02:51.173Z,46.28
2022-10-18T02:05:31.847Z,43.60
2022-10-18T02:08:22.883Z,41.92
2022-10-18T02:10:55.692Z,42.75
2022-10-18T02:13:25.656Z,42.78
2022-10-18T02:15:58.226Z,41.47
2022-10-18T02:18:33.168Z,46.63
2022-10-18T02:21:03.459Z,44.35
2022-10-18T02:23:32.436Z,46.88
2022-10-18T02:25:59.190Z,44.70
2022-10-18T02:28:26.534Z,44.95
2022-10-18T02:31:05.464Z,46.65
2022-10-18T02:33:54.058Z,39.17
2022-10-18T02:36:42.277Z,39.78
2022-10-18T02:39:15.019Z,43.10
2022-10-18T02:41:41.928Z,44.57
2022-10-18T02:44:09.596Z,37.22
2022-10-18T02:46:36.974Z,50.00
2022-10-18T02:49:03.612Z,47.45
2022-10-18T02:51:30.338Z,48.75
2022-10-18T02:53:56.975Z,52.60
2022-10-18T02:56:24.094Z,54.70
2022-10-18T02:58:50.658Z,47.63
2022-10-18T03:01:17.627Z,49.70
2022-10-18T03:03:44.233Z,54.58
2022-10-18T03:06:10.915Z,50.45
2022-10-18T03:08:38.244Z,51.95
2022-10-18T03:11:04.899Z,47.13
2022-10-18T03:13:31.548Z,45.60
2022-10-18T03:15:58.695Z,57.63
2022-10-18T03:18:25.513Z,50.60
2022-10-18T03:20:52.255Z,47.65
2022-10-18T03:23:18.761Z,50.88
2022-10-18T03:25:46.450Z,45.95
2022-10-18T03:28:13.292Z,48.13
2022-10-18T03:30:39.880Z,47.35
2022-10-18T03:33:07.112Z,46.92
2022-10-18T03:35:34.047Z,40.92
2022-10-18T03:38:00.705Z,42.47
2022-10-18T03:40:27.354Z,39.72
2022-10-18T03:42:53.886Z,42.72
2022-10-18T03:45:20.612Z,44.55
2022-10-18T03:47:47.351Z,41.65
2022-10-18T03:50:15.265Z,43.47
2022-10-18T03:52:41.923Z,41.10
2022-10-18T03:55:08.809Z,39.72
2022-10-18T03:57:35.477Z,42.97
2022-10-18T04:00:02.945Z,42.45
2022-10-18T04:02:38.835Z,40.28
2022-10-18T04:05:07.746Z,47.38
2022-10-18T04:10:03.757Z,37.38
2022-10-18T04:12:30.609Z,38.75
2022-10-18T04:14:57.298Z,39.70
2022-10-18T04:17:24.272Z,39.53
2022-10-18T04:19:50.926Z,40.25
2022-10-18T04:22:17.563Z,43.47
2022-10-18T04:24:44.304Z,38.28
2022-10-18T04:27:10.942Z,39.42
2022-10-18T04:29:37.595Z,40.97
2022-10-18T04:32:05.289Z,45.58
2022-10-18T04:34:32.079Z,43.55
2022-10-18T04:36:58.937Z,40.30
2022-10-18T04:39:25.524Z,50.97
2022-10-18T04:41:52.076Z,49.92
2022-10-18T04:44:18.743Z,41.30
2022-10-18T04:46:45.286Z,40.38
2022-10-18T04:49:12.152Z,39.97
2022-10-18T04:51:38.681Z,39.80
2022-10-18T04:54:05.642Z,38.30
2022-10-18T04:56:33.093Z,37.92
2022-10-18T04:58:59.957Z,47.08
2022-10-18T05:01:26.586Z,45.40
2022-10-18T05:03:54.347Z,46.20
2022-10-18T05:06:22.695Z,41.08
2022-10-18T05:08:49.874Z,45.15
2022-10-18T05:11:16.610Z,45.38
2022-10-18T05:13:45.966Z,45.90
2022-10-18T05:16:16.054Z,45.67
2022-10-18T05:18:43.320Z,40.72
2022-10-18T05:21:10.669Z,43.70
2022-10-18T05:23:37.223Z,59.92
2022-10-18T05:26:07.374Z,55.03
2022-10-18T05:28:39.582Z,57.20
2022-10-18T05:31:09.433Z,55.83
2022-10-18T05:33:36.496Z,58.70
2022-10-18T05:36:03.966Z,49.45
2022-10-18T05:38:31.147Z,51.97
2022-10-18T05:40:59.067Z,56.15
2022-10-18T05:43:28.999Z,69.05
2022-10-18T05:45:56.257Z,61.50
2022-10-18T05:48:22.899Z,59.72
2022-10-18T05:50:49.822Z,54.78
2022-10-18T05:53:35.858Z,66.18
2022-10-18T05:56:03.490Z,64.97
2022-10-18T05:58:30.049Z,63.63
2022-10-18T06:01:01.082Z,72.25
2022-10-18T06:03:28.367Z,63.45
2022-10-18T06:06:01.406Z,71.75
2022-10-18T06:08:28.255Z,71.82
2022-10-18T06:10:55.066Z,75.20
2022-10-18T06:13:22.367Z,52.22
2022-10-18T06:15:49.255Z,58.78
2022-10-18T06:18:16.001Z,56.88
2022-10-18T06:20:42.809Z,65.50
2022-10-18T06:23:09.448Z,68.93
2022-10-18T06:25:35.962Z,63.83
2022-10-18T06:28:07.770Z,56.75
2022-10-18T06:30:37.046Z,60.55
2022-10-18T06:33:04.003Z,57.75
2022-10-18T06:35:30.597Z,65.22
2022-10-18T06:37:57.600Z,78.38
2022-10-18T06:40:24.494Z,74.75
2022-10-18T06:43:00.231Z,71.10
2022-10-18T06:45:33.393Z,58.17
2022-10-18T06:48:00.053Z,62.15
2022-10-18T06:50:26.681Z,63.38
2022-10-18T06:52:53.193Z,61.33
2022-10-18T06:55:19.785Z,78.45
2022-10-18T06:57:46.581Z,71.53
2022-10-18T07:00:14.039Z,81.47
2022-10-18T07:02:41.333Z,68.50
2022-10-18T07:05:09.231Z,60.13
2022-10-18T07:07:36.141Z,69.68
2022-10-18T07:10:04.383Z,75.43
2022-10-18T07:12:32.085Z,72.68
2022-10-18T07:14:58.707Z,84.00
2022-10-18T07:17:26.027Z,72.35
2022-10-18T07:19:52.699Z,66.10
2022-10-18T07:22:19.324Z,55.67
2022-10-18T07:24:45.962Z,61.80
2022-10-18T07:27:12.776Z,65.88
2022-10-18T07:29:39.666Z,57.17
2022-10-18T07:32:06.396Z,44.45
2022-10-18T07:34:33.120Z,50.05
2022-10-18T07:37:02.139Z,51.67
2022-10-18T07:39:28.744Z,37.65
2022-10-18T07:41:55.334Z,46.38
2022-10-18T07:44:22.101Z,39.08
2022-10-18T07:46:48.718Z,39.03
2022-10-18T07:49:15.415Z,41.63
2022-10-18T07:51:42.024Z,43.28
2022-10-18T07:54:08.880Z,42.40
2022-10-18T07:56:35.557Z,48.00
2022-10-18T07:59:02.136Z,43.35
2022-10-18T08:01:28.885Z,42.83
2022-10-18T08:03:55.525Z,42.35
2022-10-18T08:06:23.325Z,45.13
2022-10-18T08:08:50.517Z,31.83
2022-10-18T08:11:20.481Z,36.90
2022-10-18T08:13:47.302Z,33.70
2022-10-18T08:16:17.633Z,31.10
2022-10-18T08:18:44.279Z,34.97
2022-10-18T08:21:12.355Z,29.92
2022-10-18T08:23:39.966Z,31.80
2022-10-18T08:26:15.278Z,29.00
2022-10-18T08:28:49.084Z,25.20
2022-10-18T08:31:25.565Z,23.92
2022-10-18T08:33:52.449Z,26.17
2022-10-18T08:36:19.788Z,26.20
2022-10-18T08:38:46.557Z,22.52
2022-10-18T08:41:32.986Z,19.02
2022-10-18T08:44:24.717Z,24.58
2022-10-18T08:46:55.837Z,25.73
2022-10-18T08:49:28.898Z,16.77
2022-10-18T08:51:57.582Z,20.42
2022-10-18T08:54:30.651Z,20.70
2022-10-18T08:57:04.370Z,30.60
2022-10-18T08:59:41.451Z,17.08
2022-10-18T09:02:30.856Z,20.65
2022-10-18T09:05:13.928Z,23.08
2022-10-18T09:08:09.626Z,20.42
2022-10-18T09:10:53.643Z,20.20
2022-10-18T09:13:36.271Z,30.80
2022-10-18T09:16:06.034Z,20.70
2022-10-18T09:18:41.869Z,18.90
2022-10-18T09:21:11.837Z,22.88
2022-10-18T09:23:51.407Z,21.65
2022-10-18T09:26:23.462Z,19.73
2022-10-18T09:29:11.009Z,17.73
2022-10-18T09:31:50.527Z,17.73
2022-10-18T09:34:30.277Z,18.58
2022-10-18T09:36:57.267Z,21.42
2022-10-18T09:39:33.527Z,20.95
2022-10-18T09:42:13.055Z,26.58
2022-10-18T09:44:44.342Z,19.92
2022-10-18T09:47:26.450Z,24.08
2022-10-18T09:50:02.334Z,18.38
2022-10-18T09:52:42.659Z,18.67
2022-10-18T09:55:30.778Z,18.13
2022-10-18T09:58:01.897Z,19.95
2022-10-18T10:00:34.445Z,19.38
2022-10-18T10:03:02.197Z,20.67
2022-10-18T10:05:28.845Z,24.00
2022-10-18T10:08:00.057Z,21.20
2022-10-18T10:10:28.782Z,21.52
2022-10-18T10:13:15.920Z,22.92
2022-10-18T10:15:52.299Z,15.45
2022-10-18T10:18:21.146Z,16.45
2022-10-18T10:20:52.174Z,20.13
2022-10-18T10:23:21.745Z,18.77
2022-10-18T10:25:58.575Z,22.35
2022-10-18T10:28:33.973Z,14.57
2022-10-18T10:31:19.303Z,15.27
2022-10-18T10:33:47.615Z,15.45
2022-10-18T10:36:20.647Z,18.42
2022-10-18T10:39:18.770Z,12.18
2022-10-18T10:41:49.704Z,12.15
2022-10-18T10:44:18.931Z,12.00
2022-10-18T10:46:46.687Z,15.52
2022-10-18T10:49:41.512Z,14.45
2022-10-18T10:52:26.891Z,9.63
2022-10-18T10:55:23.629Z,11.98
2022-10-18T10:57:55.399Z,10.88
2022-10-18T11:00:34.108Z,6.97
2022-10-18T11:03:31.181Z,16.60
2022-10-18T11:06:00.700Z,13.32
2022-10-18T11:08:41.466Z,14.68
2022-10-18T11:11:26.797Z,8.82
2022-10-18T11:14:26.296Z,9.85
2022-10-18T11:17:26.442Z,8.10
2022-10-18T11:20:15.093Z,11.55
2022-10-18T11:22:49.774Z,7.18
2022-10-18T11:25:17.948Z,11.98
2022-10-18T11:28:10.714Z,9.23
2022-10-18T11:31:18.866Z,12.07
2022-10-18T11:34:23.136Z,11.35
2022-10-18T11:40:08.365Z,10.23
2022-10-18T11:42:50.078Z,10.35
2022-10-18T11:45:38.497Z,13.93
2022-10-18T11:48:42.559Z,8.13
2022-10-18T11:51:34.060Z,11.90
2022-10-18T11:54:23.639Z,11.98
2022-10-18T11:57:06.635Z,9.80
2022-10-18T11:59:49.734Z,7.57
2022-10-18T12:02:35.478Z,12.75
2022-10-18T12:05:23.440Z,11.73
2022-10-18T12:08:00.796Z,8.23
2022-10-18T12:10:46.043Z,11.93
2022-10-18T12:13:29.463Z,9.55
2022-10-18T12:15:56.618Z,12.00
2022-10-18T12:18:25.932Z,11.70
2022-10-18T12:20:58.712Z,8.93
2022-10-18T12:23:52.798Z,12.73
2022-10-18T12:26:20.765Z,10.68
2022-10-18T12:29:00.953Z,10.00
2022-10-18T12:31:35.332Z,12.32
2022-10-18T12:34:25.115Z,16.45
2022-10-18T12:37:06.879Z,9.82
2022-10-18T12:39:43.924Z,10.80
2022-10-18T12:44:46.565Z,8.10
2022-10-18T12:47:23.690Z,7.00
2022-10-18T12:50:03.367Z,11.27
2022-10-18T12:52:34.561Z,11.38
2022-10-18T12:55:03.883Z,8.77
2022-10-18T12:57:58.323Z,6.43
2022-10-18T13:00:31.120Z,7.13
2022-10-18T13:03:12.419Z,9.70
2022-10-18T13:05:53.937Z,6.47
2022-10-18T13:08:27.217Z,7.53
2022-10-18T13:11:12.035Z,7.22
2022-10-18T13:14:09.693Z,5.60
2022-10-18T13:16:54.222Z,6.47
2022-10-18T13:19:30.422Z,7.28
2022-10-18T13:22:09.295Z,6.75
2022-10-18T13:25:07.320Z,9.40
2022-10-18T13:27:52.963Z,7.05
2022-10-18T13:30:31.933Z,14.48
2022-10-18T13:33:34.942Z,7.10
2022-10-18T13:36:22.483Z,11.02
2022-10-18T13:39:03.769Z,7.95
2022-10-18T13:41:35.393Z,14.20
2022-10-18T13:44:40.363Z,18.35
2022-10-18T13:47:07.284Z,11.68
2022-10-18T13:49:40.360Z,9.43
2022-10-18T13:52:25.267Z,6.40
2022-10-18T13:55:29.792Z,6.82
2022-10-18T13:58:18.977Z,7.30
2022-10-18T14:00:58.691Z,5.72
2022-10-18T14:03:56.446Z,6.70
2022-10-18T14:06:35.230Z,7.30
2022-10-18T14:09:25.655Z,9.18
2022-10-18T14:12:08.791Z,7.53
2022-10-18T14:14:38.519Z,7.60
2022-10-18T14:17:16.837Z,9.95
2022-10-18T14:20:14.534Z,11.05
2022-10-18T14:23:15.547Z,7.85
2022-10-18T14:25:42.642Z,9.27
2022-10-18T14:28:13.615Z,9.57
2022-10-18T14:30:58.962Z,9.05
2022-10-18T14:33:35.209Z,8.27
2022-10-18T14:36:11.640Z,9.43
2022-10-18T14:39:01.032Z,10.05
2022-10-18T14:41:29.131Z,12.82
2022-10-18T14:44:14.380Z,9.82
2022-10-18T14:46:49.073Z,9.73
2022-10-18T14:49:16.836Z,15.50
2022-10-18T14:51:46.370Z,15.23
2022-10-18T14:54:32.472Z,7.88
2022-10-18T14:57:01.181Z,10.57
2022-10-18T14:59:30.865Z,7.40
2022-10-18T15:02:12.706Z,8.88
2022-10-18T15:04:39.418Z,8.52
2022-10-18T15:07:13.459Z,10.18
2022-10-18T15:09:40.440Z,9.35
2022-10-18T15:12:08.077Z,10.27
2022-10-18T15:14:35.543Z,8.88
2022-10-18T15:17:08.424Z,6.07
2022-10-18T15:19:40.406Z,8.90
2022-10-18T15:25:14.981Z,5.80
2022-10-18T15:28:03.279Z,13.73
2022-10-18T15:30:40.960Z,12.70
2022-10-18T15:33:22.592Z,7.60
2022-10-18T15:35:51.014Z,10.85
2022-10-18T15:38:26.742Z,14.27
2022-10-18T15:40:54.515Z,11.80
2022-10-18T15:43:49.517Z,9.20
2022-10-18T15:46:32.058Z,8.95
2022-10-18T15:49:24.675Z,15.75
2022-10-18T15:52:33.793Z,8.73
2022-10-18T15:55:22.143Z,13.63
2022-10-18T15:57:49.308Z,9.15
2022-10-18T16:00:20.165Z,14.48
2022-10-18T16:02:46.983Z,13.95
2022-10-18T16:05:18.628Z,8.93
2022-10-18T16:07:45.364Z,9.70
2022-10-18T16:10:13.833Z,11.52
2022-10-18T16:12:40.945Z,7.90
2022-10-18T16:15:08.497Z,9.77
2022-10-18T16:17:36.024Z,10.02
2022-10-18T16:20:03.871Z,9.93
2022-10-18T16:22:32.281Z,14.32
2022-10-18T16:25:01.409Z,9.07
2022-10-18T16:27:27.996Z,10.45
2022-10-18T16:29:54.658Z,7.55
2022-10-18T16:32:21.481Z,19.55
2022-10-18T16:34:48.169Z,7.40
2022-10-18T16:37:14.757Z,10.48
2022-10-18T16:39:41.311Z,14.13
2022-10-18T16:42:07.955Z,7.88
2022-10-18T16:44:34.943Z,11.13
2022-10-18T16:47:01.700Z,12.57
2022-10-18T16:49:28.695Z,8.48
2022-10-18T16:51:55.393Z,7.50
2022-10-18T16:54:22.880Z,9.57
2022-10-18T16:56:50.276Z,10.35
2022-10-18T16:59:28.947Z,8.50
2022-10-18T17:01:55.860Z,5.75
2022-10-18T17:04:22.941Z,13.93
2022-10-18T17:06:58.339Z,6.70
2022-10-18T17:09:25.097Z,6.80
2022-10-18T17:11:51.889Z,9.23
2022-10-18T17:14:18.615Z,10.07
2022-10-18T17:16:47.030Z,7.60
2022-10-18T17:19:17.390Z,11.18
2022-10-18T17:21:43.927Z,9.80
2022-10-18T17:24:11.228Z,7.50
2022-10-18T17:26:37.848Z,8.95
2022-10-18T17:29:08.203Z,16.30
2022-10-18T17:31:35.803Z,8.10
2022-10-18T17:34:02.795Z,8.27
2022-10-18T17:36:31.428Z,14.10
2022-10-18T17:38:58.972Z,9.75
2022-10-18T17:41:26.144Z,12.50
2022-10-18T17:43:52.739Z,12.63
2022-10-18T17:46:20.201Z,14.10
2022-10-18T17:48:47.052Z,13.13
2022-10-18T17:51:16.314Z,14.32
2022-10-18T17:53:43.356Z,8.27
2022-10-18T17:56:10.983Z,8.23
2022-10-18T17:58:37.729Z,14.70
2022-10-18T18:01:11.645Z,11.43
2022-10-18T18:03:38.596Z,10.90
2022-10-18T18:06:15.582Z,12.82
2022-10-18T18:08:42.256Z,12.13
2022-10-18T18:11:09.077Z,13.02
2022-10-18T18:13:35.644Z,8.93
2022-10-18T18:16:24.418Z,10.23
2022-10-18T18:18:53.781Z,12.27
2022-10-18T18:21:21.286Z,12.32
2022-10-18T18:23:48.942Z,10.15
2022-10-18T18:26:16.335Z,10.25
2022-10-18T18:28:43.276Z,13.52
2022-10-18T18:31:12.453Z,26.50
2022-10-18T18:33:39.086Z,21.98
2022-10-18T18:36:06.956Z,9.60
2022-10-18T18:38:35.270Z,12.90
2022-10-18T18:41:03.890Z,7.70
2022-10-18T18:43:30.674Z,13.13
2022-10-18T18:45:57.567Z,13.48
2022-10-18T18:48:26.108Z,8.32
2022-10-18T18:50:53.033Z,7.35
2022-10-18T18:53:20.151Z,6.85
2022-10-18T18:55:47.715Z,7.55
2022-10-18T18:58:14.567Z,6.75
2022-10-18T19:00:44.464Z,8.50
2022-10-18T19:03:12.324Z,9.45
2022-10-18T19:05:39.083Z,9.82
2022-10-18T19:08:06.268Z,8.68
2022-10-18T19:10:33.102Z,14.98
2022-10-18T19:12:59.869Z,11.85
2022-10-18T19:15:26.571Z,12.15
2022-10-18T19:17:53.114Z,10.80
2022-10-18T19:20:19.856Z,10.90
2022-10-18T19:22:46.455Z,8.77
2022-10-18T19:25:13.569Z,12.40
2022-10-18T19:27:40.168Z,14.68
2022-10-18T19:30:09.624Z,9.73
2022-10-18T19:32:36.337Z,15.85
2022-10-18T19:35:03.875Z,10.93
2022-10-18T19:37:31.023Z,9.82
2022-10-18T19:39:59.419Z,9.40
2022-10-18T19:42:31.685Z,8.23
2022-10-18T19:45:00.925Z,11.82
2022-10-18T19:47:27.501Z,8.65
2022-10-18T19:49:54.098Z,7.85
2022-10-18T19:52:20.730Z,8.68
2022-10-18T19:54:51.155Z,8.48
2022-10-18T19:57:17.775Z,8.77
2022-10-18T19:59:44.626Z,10.52
2022-10-18T20:02:17.424Z,7.72
2022-10-18T20:04:46.724Z,10.00
2022-10-18T20:07:13.447Z,9.55
2022-10-18T20:09:40.392Z,15.48
2022-10-18T20:12:07.154Z,13.85
2022-10-18T20:14:34.021Z,16.73
2022-10-18T20:17:01.276Z,12.20
2022-10-18T20:19:34.227Z,12.77
2022-10-18T20:22:01.098Z,12.57
2022-10-18T20:24:30.449Z,12.57
2022-10-18T20:26:57.110Z,16.45
2022-10-18T20:29:25.375Z,8.23
2022-10-18T20:31:55.485Z,12.82
2022-10-18T20:34:25.893Z,11.18
2022-10-18T20:36:56.012Z,12.50
2022-10-18T20:39:22.870Z,14.60
2022-10-18T20:41:50.073Z,13.70
2022-10-18T20:44:19.316Z,17.90
2022-10-18T20:46:47.045Z,11.55
2022-10-18T20:49:15.918Z,15.85
2022-10-18T20:51:42.869Z,16.85
2022-10-18T20:54:10.000Z,12.38
2022-10-18T20:56:38.645Z,15.13
2022-10-18T20:59:09.351Z,16.52
2022-10-18T21:01:37.770Z,12.70
2022-10-18T21:04:06.945Z,14.80
2022-10-18T21:06:36.725Z,13.80
2022-10-18T21:09:10.759Z,15.20
2022-10-18T21:11:40.870Z,14.52
2022-10-18T21:14:12.510Z,17.95
2022-10-18T21:16:40.699Z,29.40
2022-10-18T21:19:11.667Z,15.75
2022-10-18T21:21:38.979Z,15.90
2022-10-18T21:24:07.867Z,14.30
2022-10-18T21:26:35.726Z,16.90
2022-10-18T21:29:04.594Z,15.68
2022-10-18T21:31:34.893Z,15.80
2022-10-18T21:34:15.577Z,15.27
2022-10-18T21:36:44.914Z,12.10
2022-10-18T21:39:17.770Z,10.20
2022-10-18T21:41:45.365Z,13.27
2022-10-18T21:44:12.565Z,19.08
2022-10-18T21:46:40.330Z,16.05
2022-10-18T21:49:07.963Z,14.02
2022-10-18T21:51:36.449Z,13.48
2022-10-18T21:54:03.238Z,19.52
2022-10-18T21:56:34.389Z,29.63
2022-10-18T21:59:04.856Z,19.38
2022-10-18T22:01:37.103Z,17.98
2022-10-18T22:04:06.765Z,14.75
2022-10-18T22:09:10.080Z,11.63
2022-10-18T22:11:45.561Z,21.88
2022-10-18T22:14:12.555Z,19.83
2022-10-18T22:16:39.608Z,16.10
2022-10-18T22:19:07.418Z,17.42
2022-10-18T22:21:35.127Z,21.92
2022-10-18T22:24:08.167Z,19.92
2022-10-18T22:26:37.691Z,22.20
2022-10-18T22:29:18.423Z,17.30
2022-10-18T22:31:51.926Z,25.63
2022-10-18T22:34:21.317Z,22.25
2022-10-18T22:36:48.289Z,19.10
2022-10-18T22:39:15.550Z,17.48
2022-10-18T22:41:42.808Z,18.33
2022-10-18T22:44:12.304Z,17.80
2022-10-18T22:46:39.892Z,21.17
2022-10-18T22:49:07.047Z,18.73
2022-10-18T22:54:01.940Z,25.75
2022-10-18T22:56:28.743Z,18.77
2022-10-18T22:58:55.395Z,22.63
2022-10-18T23:01:23.658Z,15.25
2022-10-18T23:04:00.026Z,15.43
2022-10-18T23:06:29.011Z,14.57
2022-10-18T23:08:57.506Z,15.13
2022-10-18T23:11:26.197Z,22.25
2022-10-18T23:13:53.429Z,18.42
2022-10-18T23:16:20.577Z,19.52
2022-10-18T23:18:55.456Z,18.33
2022-10-18T23:21:24.613Z,17.50
2022-10-18T23:23:52.367Z,23.92
2022-10-18T23:26:24.730Z,18.48
2022-10-18T23:28:52.596Z,20.35
2022-10-18T23:31:25.335Z,19.80
2022-10-18T23:33:54.611Z,22.02
2022-10-18T23:36:22.448Z,23.30
2022-10-18T23:38:49.475Z,16.13
2022-10-18T23:41:16.811Z,20.08
2022-10-18T23:43:43.926Z,18.30
2022-10-18T23:46:11.245Z,22.48
2022-10-18T23:48:38.225Z,20.05
2022-10-18T23:51:05.727Z,20.73
2022-10-18T23:53:32.864Z,16.35
2022-10-18T23:56:02.351Z,18.30
2022-10-18T23:58:31.335Z,24.35
